Time;durP1;ratioP1;P1;durP2;ratioP2;P2;SDS_P1;SDS_P2;PMS_P1;PMS_P2;Temp;Humidity;BMP_temperature;BMP_pressure;BME280_temperature;BME280_humidity;BME280_pressure;Samples;Min_cycle;Max_cycle;Signal;HPM_P1;HPM_P2
2021/03/18 00:02:19;;;;;;;13.68;11.05;;;-1.60;99.90;;;;;;4879660;29;20496;-93
2021/03/18 00:06:24;;;;;;;14.50;11.65;;;-1.40;99.90;;;;;;4898752;29;20415;-93
2021/03/18 00:09:26;;;;;;;13.52;10.73;;;-1.40;99.90;;;;;;4841030;29;20457;-94
2021/03/18 00:12:31;;;;;;;13.35;11.02;;;-1.50;99.90;;;;;;4833074;29;20448;-93
2021/03/18 00:15:20;;;;;;;14.32;11.27;;;-1.30;99.90;;;;;;4855839;29;20440;-93
2021/03/18 00:18:20;;;;;;;16.00;11.83;;;-1.20;99.90;;;;;;4841465;29;20519;-93
2021/03/18 00:21:38;;;;;;;14.13;11.32;;;-1.20;99.90;;;;;;4890281;29;20431;-93
2021/03/18 00:24:26;;;;;;;16.00;11.68;;;-1.10;99.90;;;;;;4913520;29;20399;-93
2021/03/18 00:27:29;;;;;;;14.45;11.20;;;-1.00;99.90;;;;;;4910031;29;20427;-94
2021/03/18 00:30:03;;;;;;;16.02;12.32;;;-0.90;99.90;;;;;;4907526;29;20434;-93
2021/03/18 00:32:36;;;;;;;15.73;12.43;;;-1.00;99.90;;;;;;4908484;29;20507;-94
2021/03/18 00:35:12;;;;;;;16.75;12.57;;;-0.90;99.90;;;;;;4905644;29;20547;-95
2021/03/18 00:37:49;;;;;;;15.65;12.13;;;-1.00;99.90;;;;;;4889631;29;20452;-96
2021/03/18 00:40:31;;;;;;;19.23;13.27;;;-1.10;99.90;;;;;;4889217;29;20468;-96
2021/03/18 00:43:02;;;;;;;17.17;12.57;;;-1.00;99.90;;;;;;4889112;29;20623;-93
2021/03/18 00:45:30;;;;;;;15.90;11.88;;;-1.00;99.90;;;;;;4911167;29;20584;-94
2021/03/18 00:48:00;;;;;;;15.45;11.77;;;-1.00;99.90;;;;;;4910119;29;20445;-94
2021/03/18 00:50:33;;;;;;;18.08;13.02;;;-1.10;99.90;;;;;;4910659;29;20433;-94
2021/03/18 00:53:01;;;;;;;18.80;13.35;;;-1.10;99.90;;;;;;4910043;29;20512;-96
2021/03/18 00:55:28;;;;;;;18.67;13.87;;;-1.20;99.90;;;;;;4893767;29;20500;-93
2021/03/18 00:57:56;;;;;;;17.55;12.93;;;-1.30;99.90;;;;;;4983567;28;20504;-94
2021/03/18 01:00:40;;;;;;;20.50;14.05;;;-1.20;99.90;;;;;;5008000;28;20560;-94
2021/03/18 01:03:09;;;;;;;22.42;14.95;;;-1.20;99.90;;;;;;5008084;28;20900;-95
2021/03/18 01:05:41;;;;;;;20.63;14.57;;;-1.30;99.90;;;;;;5023758;28;20947;-95
2021/03/18 01:08:12;;;;;;;23.33;15.00;;;-1.20;99.90;;;;;;5006431;28;20821;-95
2021/03/18 01:10:49;;;;;;;23.30;15.60;;;-1.30;99.90;;;;;;5005916;28;20451;-93
2021/03/18 01:13:21;;;;;;;26.90;16.60;;;-1.40;99.90;;;;;;5024340;28;20409;-96
2021/03/18 01:15:56;;;;;;;24.65;16.38;;;-1.40;99.90;;;;;;4977335;28;20562;-96
2021/03/18 01:18:46;;;;;;;29.27;17.70;;;-1.30;99.90;;;;;;5008782;28;20551;-93
2021/03/18 01:21:36;;;;;;;27.05;17.50;;;-1.40;99.90;;;;;;5011112;28;20503;-95
2021/03/18 01:24:23;;;;;;;26.97;18.13;;;-1.40;99.90;;;;;;4950716;28;20421;-96
2021/03/18 01:27:05;;;;;;;27.00;16.90;;;-1.40;99.90;;;;;;5011077;28;20401;-93
2021/03/18 01:29:38;;;;;;;29.40;18.73;;;-1.50;99.90;;;;;;5005370;28;20946;-95
2021/03/18 01:32:09;;;;;;;27.92;18.60;;;-1.40;99.90;;;;;;5010034;28;20429;-94
2021/03/18 01:35:32;;;;;;;30.13;18.83;;;-1.50;99.90;;;;;;5013254;28;20416;-95
2021/03/18 01:38:01;;;;;;;29.75;18.77;;;-1.50;99.90;;;;;;5008780;28;20440;-96
2021/03/18 01:40:35;;;;;;;27.60;18.52;;;-1.40;99.90;;;;;;5026032;28;20726;-96
2021/03/18 01:43:16;;;;;;;28.15;18.52;;;-1.50;99.90;;;;;;5013602;28;20417;-95
2021/03/18 01:46:17;;;;;;;29.48;19.27;;;-1.60;99.90;;;;;;4994972;28;20409;-96
2021/03/18 01:49:12;;;;;;;28.73;18.37;;;-1.60;99.90;;;;;;5012348;28;20420;-95
2021/03/18 01:52:19;;;;;;;29.23;19.17;;;-1.60;99.90;;;;;;5009237;28;20417;-96
2021/03/18 02:06:40;;;;;;;31.15;20.25;;;-1.40;99.90;;;;;;5054965;23;20504;-95
2021/03/18 02:10:23;;;;;;;32.07;20.93;;;-1.50;99.90;;;;;;5033707;28;20416;-95
2021/03/18 02:59:18;;;;;;;26.40;19.13;;;-1.80;99.90;;;;;;5027096;28;20824;-96
2021/03/18 03:02:01;;;;;;;30.65;20.38;;;-1.80;99.90;;;;;;5014635;28;20504;-96
2021/03/18 03:04:55;;;;;;;29.52;20.20;;;-2.00;99.90;;;;;;5012468;28;20412;-95
2021/03/18 03:07:49;;;;;;;28.90;19.70;;;-2.00;99.90;;;;;;4996931;28;20498;-96
2021/03/18 03:10:37;;;;;;;29.05;20.27;;;-2.20;99.90;;;;;;4966949;28;20416;-96
2021/03/18 03:16:55;;;;;;;31.42;21.50;;;-2.30;99.90;;;;;;4973535;28;20593;-95
2021/03/18 03:19:55;;;;;;;30.65;21.42;;;-2.40;99.90;;;;;;4901154;29;20411;-95
2021/03/18 03:23:17;;;;;;;31.23;21.20;;;-2.20;99.90;;;;;;4895458;29;20492;-96
2021/03/18 03:41:15;;;;;;;28.70;19.27;;;-2.10;99.90;;;;;;4951912;29;20556;-96
2021/03/18 03:44:17;;;;;;;28.63;19.55;;;-2.20;99.90;;;;;;5207422;23;20461;-96
2021/03/18 03:46:57;;;;;;;23.83;17.00;;;-2.10;99.90;;;;;;5031986;28;20418;-96
2021/03/18 03:49:32;;;;;;;25.42;16.90;;;-2.10;99.90;;;;;;5030216;28;20423;-96
2021/03/18 03:52:34;;;;;;;24.17;16.02;;;-2.10;99.90;;;;;;5028101;28;20486;-96
2021/03/18 03:55:14;;;;;;;24.85;17.42;;;-2.10;99.90;;;;;;5028934;28;20423;-96
2021/03/18 03:58:01;;;;;;;25.33;16.50;;;-2.20;99.90;;;;;;5031475;28;20419;-96
2021/03/18 04:00:30;;;;;;;22.77;16.05;;;-2.20;99.90;;;;;;5032637;28;20481;-96
2021/03/18 04:03:06;;;;;;;22.83;15.60;;;-2.20;99.90;;;;;;5016140;28;20473;-96
2021/03/18 04:05:44;;;;;;;22.63;16.02;;;-2.20;99.90;;;;;;5029004;28;20427;-95
2021/03/18 04:08:13;;;;;;;20.58;14.60;;;-2.40;99.90;;;;;;5031374;28;20501;-96
2021/03/18 04:10:46;;;;;;;23.33;16.52;;;-2.50;99.90;;;;;;5032764;28;20518;-93
2021/03/18 04:13:26;;;;;;;22.93;14.97;;;-2.60;99.90;;;;;;5026987;28;20427;-94
2021/03/18 04:16:01;;;;;;;26.23;17.48;;;-2.60;99.90;;;;;;5028295;28;20423;-96
2021/03/18 04:18:44;;;;;;;30.50;19.55;;;-2.80;99.90;;;;;;5045533;28;20410;-95
2021/03/18 04:21:39;;;;;;;26.10;18.02;;;-2.90;99.90;;;;;;5034575;28;20450;-96
2021/03/18 04:24:10;;;;;;;25.30;18.10;;;-2.90;99.90;;;;;;5045618;28;20419;-96
2021/03/18 04:26:39;;;;;;;26.10;16.92;;;-3.00;99.90;;;;;;5030544;28;20929;-96
2021/03/18 04:29:08;;;;;;;22.63;15.90;;;-3.00;99.90;;;;;;5010304;28;20515;-95
2021/03/18 04:31:43;;;;;;;20.40;14.23;;;-2.80;99.90;;;;;;5030061;28;20532;-95
2021/03/18 04:34:16;;;;;;;19.83;14.00;;;-2.70;99.90;;;;;;5031248;28;20890;-96
2021/03/18 04:36:47;;;;;;;19.92;13.30;;;-2.90;99.90;;;;;;5031394;28;20461;-96
2021/03/18 04:39:15;;;;;;;17.95;12.35;;;-2.70;99.90;;;;;;5030602;28;20518;-96
2021/03/18 04:41:53;;;;;;;20.73;13.15;;;-2.80;99.90;;;;;;5031822;28;20442;-94
2021/03/18 04:44:24;;;;;;;19.40;13.83;;;-2.90;99.90;;;;;;5015865;28;20445;-96
2021/03/18 04:47:06;;;;;;;20.98;14.40;;;-2.80;99.90;;;;;;5014337;28;20431;-96
2021/03/18 04:50:32;;;;;;;22.58;15.38;;;-2.90;99.90;;;;;;4979604;28;20420;-96
2021/03/18 04:53:29;;;;;;;19.35;14.15;;;-2.90;99.90;;;;;;4971828;28;20432;-95
2021/03/18 04:56:18;;;;;;;21.77;14.93;;;-2.60;99.90;;;;;;4978063;28;20934;-95
2021/03/18 04:58:58;;;;;;;23.08;15.63;;;-2.40;99.90;;;;;;4927698;28;20464;-96
2021/03/18 05:02:05;;;;;;;28.92;18.63;;;-2.50;99.90;;;;;;4991193;28;20468;-95
2021/03/18 05:05:01;;;;;;;32.50;20.58;;;-2.60;99.90;;;;;;4988083;28;20463;-96
2021/03/18 05:07:53;;;;;;;32.33;20.93;;;-2.70;99.90;;;;;;4962761;28;20452;-96
2021/03/18 05:10:44;;;;;;;36.25;22.23;;;-2.70;99.90;;;;;;4974908;28;20432;-96
2021/03/18 05:13:56;;;;;;;36.83;22.83;;;-2.80;99.90;;;;;;4964725;28;20434;-94
2021/03/18 05:17:25;;;;;;;31.73;20.58;;;-2.80;99.90;;;;;;4966919;28;20447;-95
2021/03/18 05:20:49;;;;;;;29.70;19.23;;;-2.70;99.90;;;;;;4990844;28;20721;-96
2021/03/18 05:23:33;;;;;;;28.27;18.75;;;-2.60;99.90;;;;;;4971544;28;20496;-95
2021/03/18 05:26:25;;;;;;;29.45;19.30;;;-2.60;99.90;;;;;;4980698;28;20521;-96
2021/03/18 05:29:00;;;;;;;26.87;18.40;;;-2.50;99.90;;;;;;4961082;28;20428;-93
2021/03/18 05:32:56;;;;;;;24.60;16.23;;;-2.50;99.90;;;;;;4954079;29;20459;-95
2021/03/18 05:36:07;;;;;;;20.80;14.63;;;-2.60;99.90;;;;;;4956422;29;20943;-96
2021/03/18 05:38:49;;;;;;;22.57;14.53;;;-2.60;99.90;;;;;;4951207;29;20434;-96
2021/03/18 05:41:25;;;;;;;22.58;15.38;;;-2.40;99.90;;;;;;4968313;29;20442;-96
2021/03/18 05:44:19;;;;;;;19.80;13.88;;;-2.40;99.90;;;;;;4948651;29;20432;-95
2021/03/18 05:46:47;;;;;;;19.52;13.93;;;-2.30;99.90;;;;;;4933070;29;20499;-96
2021/03/18 05:49:18;;;;;;;20.20;14.15;;;-2.30;99.90;;;;;;4933488;29;20419;-96
2021/03/18 05:51:51;;;;;;;19.53;14.27;;;-2.30;99.90;;;;;;4939268;28;20460;-96
2021/03/18 05:54:22;;;;;;;18.95;13.75;;;-2.30;99.90;;;;;;4952509;28;20423;-93
2021/03/18 05:57:15;;;;;;;18.40;13.18;;;-2.20;99.90;;;;;;4987016;28;20420;-95
2021/03/18 05:59:53;;;;;;;17.90;12.68;;;-2.10;99.90;;;;;;4984737;28;20577;-95
2021/03/18 06:02:22;;;;;;;17.55;12.50;;;-2.00;99.90;;;;;;4971036;28;20503;-96
2021/03/18 06:05:22;;;;;;;17.27;12.50;;;-2.00;99.90;;;;;;4970489;28;20428;-94
2021/03/18 06:08:10;;;;;;;17.42;12.30;;;-1.90;99.90;;;;;;4968617;28;20459;-95
2021/03/18 06:11:16;;;;;;;19.02;11.52;;;-1.50;99.90;;;;;;4971150;28;20428;-96
2021/03/18 06:16:58;;;;;;;16.85;11.82;;;-1.30;99.90;;;;;;5159728;23;20438;-96
2021/03/18 06:19:26;;;;;;;16.43;11.87;;;-1.30;99.90;;;;;;5028162;28;20419;-96
2021/03/18 06:21:58;;;;;;;19.27;11.85;;;-1.10;99.90;;;;;;5028050;28;20435;-96
2021/03/18 06:24:33;;;;;;;17.10;12.05;;;-1.10;99.90;;;;;;5022631;28;20425;-95
2021/03/18 06:27:00;;;;;;;15.10;11.00;;;-0.90;99.90;;;;;;5037379;28;20932;-95
2021/03/18 06:29:35;;;;;;;14.43;10.20;;;-0.60;99.90;;;;;;5040004;28;20488;-95
2021/03/18 06:34:59;;;;;;;39.30;33.20;;;-0.50;99.90;;;;;;5267579;22;20419;-95
2021/03/18 06:37:46;;;;;;;16.65;12.60;;;-0.40;99.90;;;;;;5046559;28;20407;-95
2021/03/18 06:40:43;;;;;;;19.65;13.43;;;-0.60;99.90;;;;;;5046906;28;20419;-95
2021/03/18 06:43:45;;;;;;;16.45;11.93;;;-0.50;99.90;;;;;;5047536;28;20428;-94
2021/03/18 06:46:16;;;;;;;13.77;10.33;;;-0.30;99.90;;;;;;5041773;28;20438;-95
2021/03/18 06:48:43;;;;;;;18.35;11.23;;;-0.40;99.90;;;;;;5021574;28;20766;-95
2021/03/18 06:51:27;;;;;;;14.63;10.40;;;-0.20;99.90;;;;;;5035965;28;20423;-95
2021/03/18 06:53:55;;;;;;;14.10;10.65;;;0.10;99.90;;;;;;5039158;28;20505;-96
2021/03/18 06:56:31;;;;;;;15.90;10.73;;;-0.10;99.90;;;;;;5020890;28;20399;-93
2021/03/18 06:58:59;;;;;;;15.35;10.68;;;0.40;99.90;;;;;;5034390;28;20473;-95
2021/03/18 07:01:33;;;;;;;15.52;10.82;;;0.40;99.10;;;;;;5040799;28;20430;-95
2021/03/18 07:04:07;;;;;;;14.77;10.30;;;0.30;99.90;;;;;;5043526;28;20423;-96
2021/03/18 07:06:52;;;;;;;14.40;10.60;;;0.50;99.50;;;;;;5024210;28;20480;-96
2021/03/18 07:09:29;;;;;;;15.32;10.98;;;0.60;99.10;;;;;;5041938;28;20443;-95
2021/03/18 07:12:05;;;;;;;16.33;11.13;;;0.70;99.10;;;;;;5040902;28;20921;-93
2021/03/18 07:14:39;;;;;;;15.05;10.88;;;0.70;99.00;;;;;;5030318;28;20486;-95
2021/03/18 07:17:08;;;;;;;14.95;10.48;;;1.00;98.30;;;;;;5048107;28;20493;-93
2021/03/18 07:19:36;;;;;;;14.32;10.55;;;1.40;96.90;;;;;;5040956;28;20510;-95
2021/03/18 07:22:04;;;;;;;13.40;10.10;;;1.40;96.20;;;;;;5025126;28;20438;-92
2021/03/18 07:24:36;;;;;;;14.20;9.65;;;1.40;95.20;;;;;;5063034;28;20413;-95
2021/03/18 07:27:19;;;;;;;13.55;10.07;;;1.20;95.10;;;;;;5068955;28;20417;-96
2021/03/18 07:30:23;;;;;;;13.73;9.63;;;1.20;96.80;;;;;;5072210;28;20400;-96
2021/03/18 07:32:54;;;;;;;12.98;9.93;;;1.00;97.20;;;;;;5039590;28;20432;-96
2021/03/18 07:35:25;;;;;;;13.65;9.60;;;1.00;97.40;;;;;;5061223;28;20436;-96
2021/03/18 07:37:55;;;;;;;13.30;9.68;;;1.10;97.40;;;;;;5067929;28;20429;-95
2021/03/18 07:40:56;;;;;;;11.38;8.32;;;1.40;96.50;;;;;;5070165;28;20428;-93
2021/03/18 07:43:52;;;;;;;15.00;9.10;;;1.70;95.90;;;;;;5069708;28;20976;-96
2021/03/18 07:46:40;;;;;;;12.57;9.17;;;1.80;94.40;;;;;;5066997;28;20405;-92
2021/03/18 07:49:48;;;;;;;12.95;8.48;;;1.60;94.30;;;;;;5010905;28;20426;-92
2021/03/18 07:52:30;;;;;;;13.75;8.70;;;1.90;94.60;;;;;;5002586;28;20557;-96
2021/03/18 07:55:01;;;;;;;11.93;8.75;;;2.00;93.60;;;;;;4988139;28;20428;-93
2021/03/18 07:57:52;;;;;;;11.13;8.55;;;1.80;93.00;;;;;;4984839;28;20437;-95
2021/03/18 08:00:24;;;;;;;12.13;8.73;;;1.70;92.90;;;;;;4983351;28;20426;-96
2021/03/18 08:02:52;;;;;;;14.00;9.70;;;1.60;92.90;;;;;;4983292;28;20512;-96
2021/03/18 08:05:38;;;;;;;12.60;9.07;;;1.20;96.90;;;;;;4982475;28;20418;-95
2021/03/18 08:08:07;;;;;;;14.50;10.63;;;1.30;97.50;;;;;;4982276;28;20435;-96
2021/03/18 08:11:06;;;;;;;11.77;8.52;;;1.40;97.90;;;;;;4984790;28;20419;-96
2021/03/18 08:13:35;;;;;;;12.75;8.68;;;1.60;97.30;;;;;;4983553;28;20449;-96
2021/03/18 08:16:05;;;;;;;11.23;8.05;;;1.60;96.00;;;;;;4982697;28;20418;-94
2021/03/18 08:18:36;;;;;;;10.45;7.70;;;1.80;95.30;;;;;;4984616;28;20481;-96
2021/03/18 08:21:05;;;;;;;7.70;6.03;;;1.80;95.80;;;;;;4980064;28;20465;-96
2021/03/18 08:23:32;;;;;;;7.60;5.82;;;2.10;95.10;;;;;;4982374;28;20426;-96
2021/03/18 08:26:02;;;;;;;8.02;5.90;;;2.40;94.00;;;;;;4981715;28;20464;-96
2021/03/18 08:29:01;;;;;;;8.70;6.80;;;2.10;95.10;;;;;;4981211;28;20426;-95
2021/03/18 08:31:30;;;;;;;9.35;6.38;;;2.00;97.50;;;;;;4982084;28;20462;-95
2021/03/18 08:34:00;;;;;;;8.93;6.77;;;2.40;96.40;;;;;;4981079;28;20509;-94
2021/03/18 08:36:26;;;;;;;9.68;7.05;;;2.70;94.60;;;;;;4979383;28;20925;-95
2021/03/18 08:38:59;;;;;;;8.45;5.97;;;2.60;96.80;;;;;;4998148;28;20421;-96
2021/03/18 08:41:34;;;;;;;9.73;6.78;;;2.70;94.50;;;;;;5055701;28;20432;-96
2021/03/18 08:44:24;;;;;;;8.60;6.60;;;2.60;93.00;;;;;;5055921;28;20496;-96
2021/03/18 08:46:51;;;;;;;7.57;6.35;;;2.60;95.90;;;;;;5057733;28;20908;-94
2021/03/18 08:49:19;;;;;;;9.10;6.18;;;3.00;94.30;;;;;;5056778;28;20426;-94
2021/03/18 08:51:48;;;;;;;8.82;6.47;;;2.80;88.40;;;;;;5056198;28;20424;-96
2021/03/18 08:54:40;;;;;;;8.73;6.90;;;2.40;94.10;;;;;;5057238;28;20405;-95
2021/03/18 08:57:09;;;;;;;9.63;7.00;;;2.40;93.60;;;;;;5058109;28;20510;-94
2021/03/18 08:59:39;;;;;;;8.23;6.60;;;2.20;95.80;;;;;;5058217;28;20471;-95
2021/03/18 09:02:32;;;;;;;9.70;6.68;;;2.30;95.10;;;;;;5059226;28;20429;-96
2021/03/18 09:24:17;;;;;;;9.50;6.32;;;4.30;88.50;;;;;;5292090;22;20449;-95
2021/03/18 09:26:46;;;;;;;7.45;5.25;;;4.70;90.10;;;;;;5003793;28;20927;-96
2021/03/18 09:29:46;;;;;;;9.07;4.88;;;5.10;81.30;;;;;;5006635;28;20511;-96
2021/03/18 09:32:30;;;;;;;5.03;3.83;;;5.00;79.20;;;;;;5001878;28;20425;-95
2021/03/18 09:35:21;;;;;;;6.40;4.22;;;4.30;72.20;;;;;;5016812;28;20428;-96
2021/03/18 09:38:21;;;;;;;7.77;4.87;;;4.10;79.60;;;;;;5017093;28;20539;-96
2021/03/18 09:41:30;;;;;;;6.18;4.50;;;4.20;80.90;;;;;;4997128;28;20444;-94
2021/03/18 09:56:59;;;;;;;4.60;3.70;;;4.60;75.50;;;;;;5180187;23;20436;31
2021/03/18 10:03:24;;;;;;;5.05;3.97;;;3.70;79.90;;;;;;5892055;23;20802;-94
2021/03/18 10:07:02;;;;;;;6.10;4.33;;;3.70;79.00;;;;;;4996133;28;20543;-94
2021/03/18 10:10:35;;;;;;;6.57;4.40;;;3.40;81.10;;;;;;4991309;28;20465;-95
2021/03/18 10:13:28;;;;;;;6.18;4.60;;;3.20;81.70;;;;;;5005187;28;20438;-93
2021/03/18 11:52:14;;;;;;;5.20;4.30;;;5.60;70.10;;;;;;5417975;23;20434;-96
2021/03/18 12:02:43;;;;;;;6.15;3.75;;;5.10;73.50;;;;;;5107877;22;20488;-95
2021/03/18 12:05:46;;;;;;;4.10;3.13;;;5.40;77.80;;;;;;5028677;28;20412;-96
2021/03/18 12:11:02;;;;;;;4.57;3.30;;;7.10;69.40;;;;;;5012288;28;20430;-95
2021/03/18 12:13:55;;;;;;;5.97;3.83;;;7.80;65.60;;;;;;4998928;28;20473;-93
2021/03/18 12:19:37;;;;;;;3.65;2.67;;;7.50;59.90;;;;;;5092898;23;20415;-95
2021/03/18 12:22:30;;;;;;;3.97;2.95;;;7.20;59.20;;;;;;5050202;28;20493;-96
2021/03/18 12:25:00;;;;;;;4.40;3.33;;;7.10;55.10;;;;;;5017934;28;20431;-96
2021/03/18 12:27:44;;;;;;;4.65;3.00;;;7.00;68.10;;;;;;5039553;28;20423;-96
2021/03/18 12:36:01;;;;;;;4.15;3.08;;;8.60;57.50;;;;;;5009509;28;20461;-96
2021/03/18 12:39:05;;;;;;;3.53;2.72;;;9.00;55.00;;;;;;4965683;28;20967;-95
2021/03/18 12:41:46;;;;;;;4.78;3.10;;;8.40;44.10;;;;;;4975801;28;20444;-95
2021/03/18 12:44:43;;;;;;;4.57;3.22;;;6.70;48.10;;;;;;4962905;28;20427;-96
2021/03/18 12:50:41;;;;;;;3.90;2.97;;;6.70;53.30;;;;;;5050552;28;20434;-95
2021/03/18 12:53:37;;;;;;;5.50;3.60;;;7.50;52.40;;;;;;5036201;28;20439;-96
2021/03/18 12:56:46;;;;;;;3.40;2.90;;;8.50;52.60;;;;;;5051828;28;20415;-96
2021/03/18 12:59:56;;;;;;;3.50;2.78;;;9.60;49.60;;;;;;5038475;28;20395;-96
2021/03/18 13:02:41;;;;;;;4.40;3.30;;;10.60;47.10;;;;;;5031542;28;20499;-96
2021/03/18 13:05:13;;;;;;;4.55;3.50;;;10.90;47.00;;;;;;5031407;28;20411;-96
2021/03/18 13:07:41;;;;;;;4.47;3.20;;;11.10;47.20;;;;;;5027054;28;20494;-92
2021/03/18 13:10:10;;;;;;;3.87;3.03;;;10.40;47.20;;;;;;5023440;28;20430;-96
2021/03/18 13:12:37;;;;;;;3.40;2.75;;;10.10;47.30;;;;;;5021631;28;20411;-95
2021/03/18 13:15:07;;;;;;;3.92;2.92;;;9.90;48.70;;;;;;5020004;28;20430;-96
2021/03/18 13:17:34;;;;;;;4.50;3.20;;;9.40;43.40;;;;;;5022512;28;20415;-93
2021/03/18 13:20:08;;;;;;;4.60;3.30;;;9.00;48.60;;;;;;5031860;28;20425;-93
2021/03/18 13:22:39;;;;;;;5.90;4.15;;;8.90;46.10;;;;;;5039210;28;20513;-93
2021/03/18 13:25:09;;;;;;;7.70;4.47;;;8.10;52.00;;;;;;5040810;28;20414;-92
2021/03/18 13:27:37;;;;;;;6.37;4.50;;;7.50;61.70;;;;;;5039808;28;20444;-92
2021/03/18 13:30:08;;;;;;;6.15;4.70;;;6.30;67.40;;;;;;5039526;28;20765;-92
2021/03/18 13:32:35;;;;;;;8.93;6.35;;;4.60;70.50;;;;;;5037604;28;20444;-92
2021/03/18 13:35:03;;;;;;;7.68;5.70;;;3.70;90.00;;;;;;5037953;28;20508;-93
2021/03/18 13:37:30;;;;;;;8.82;5.97;;;3.60;92.80;;;;;;5037074;28;20849;-94
2021/03/18 13:39:58;;;;;;;9.70;6.40;;;3.40;92.10;;;;;;5037535;28;20765;-93
2021/03/18 13:42:26;;;;;;;8.32;6.10;;;3.40;92.20;;;;;;5037642;28;20800;-95
2021/03/18 13:44:53;;;;;;;7.70;5.38;;;3.50;92.70;;;;;;5037230;28;20413;-95
2021/03/18 13:47:20;;;;;;;7.13;5.50;;;4.30;92.00;;;;;;5037310;28;20441;-93
2021/03/18 13:49:47;;;;;;;7.03;5.30;;;5.70;93.50;;;;;;5041979;28;20785;-95
2021/03/18 13:52:18;;;;;;;7.87;5.57;;;6.50;82.50;;;;;;5042032;28;20427;-94
2021/03/18 13:54:52;;;;;;;9.20;6.20;;;7.10;83.40;;;;;;5045659;28;20421;-96
2021/03/18 14:00:03;;;;;;;6.55;5.32;;;6.80;73.70;;;;;;5786787;22;20381;-88
2021/03/18 14:02:31;;;;;;;6.13;4.37;;;6.50;75.00;;;;;;4935153;29;20459;-95
2021/03/18 14:04:58;;;;;;;4.03;3.13;;;7.70;83.10;;;;;;4936559;29;20434;-92
2021/03/18 14:07:24;;;;;;;5.03;3.25;;;8.10;70.80;;;;;;4936418;29;20462;-95
2021/03/18 14:09:51;;;;;;;5.35;3.30;;;7.40;70.70;;;;;;4936849;29;20431;-94
2021/03/18 14:12:26;;;;;;;4.78;3.33;;;6.50;75.80;;;;;;4937167;29;20756;-96
2021/03/18 14:14:52;;;;;;;4.65;3.50;;;5.50;78.60;;;;;;4936670;29;20438;-94
2021/03/18 14:17:19;;;;;;;6.18;3.60;;;5.00;85.60;;;;;;4935884;29;20431;-94
2021/03/18 14:19:46;;;;;;;6.03;4.15;;;4.70;89.90;;;;;;4935589;29;20490;-94
2021/03/18 14:22:14;;;;;;;5.47;3.85;;;4.20;91.30;;;;;;4935348;29;20467;-94
2021/03/18 14:24:41;;;;;;;5.78;4.40;;;3.90;93.60;;;;;;4936468;29;20427;-94
2021/03/18 14:27:08;;;;;;;5.50;4.05;;;3.70;95.00;;;;;;4935624;29;20836;-94
2021/03/18 14:29:35;;;;;;;6.43;4.00;;;3.40;95.20;;;;;;4935334;29;20431;-93
2021/03/18 14:32:02;;;;;;;10.60;4.23;;;2.90;96.10;;;;;;4935604;29;20518;-95
2021/03/18 14:34:29;;;;;;;4.97;3.55;;;2.10;97.20;;;;;;4935907;29;20445;-92
2021/03/18 14:36:55;;;;;;;5.95;4.15;;;1.00;99.80;;;;;;4936519;29;20431;-92
2021/03/18 14:39:23;;;;;;;7.47;4.90;;;0.10;99.90;;;;;;4936209;29;20931;-93
2021/03/18 14:41:50;;;;;;;7.47;4.75;;;-0.20;99.90;;;;;;4936437;29;20435;-95
2021/03/18 14:44:18;;;;;;;6.65;4.38;;;-0.20;99.90;;;;;;4922661;29;20437;-94
2021/03/18 14:46:46;;;;;;;7.40;4.47;;;-0.40;99.90;;;;;;4917706;29;20493;-93
2021/03/18 14:49:13;;;;;;;7.25;5.00;;;-0.60;99.90;;;;;;4916425;29;20429;-94
2021/03/18 14:51:40;;;;;;;7.40;4.73;;;-0.80;99.90;;;;;;4916727;29;20515;-93
2021/03/18 14:54:09;;;;;;;5.65;4.15;;;-0.90;99.90;;;;;;4917189;29;20441;-93
2021/03/18 14:56:36;;;;;;;5.57;3.90;;;-1.00;99.90;;;;;;4916921;29;20499;-94
2021/03/18 14:59:23;;;;;;;6.22;3.80;;;-1.10;99.90;;;;;;4919661;29;20424;-91
2021/03/18 15:01:49;;;;;;;5.10;3.75;;;-1.30;99.90;;;;;;4916876;29;20444;-94
2021/03/18 15:04:17;;;;;;;6.13;4.20;;;-1.20;99.90;;;;;;4917383;29;20543;-93
2021/03/18 15:06:43;;;;;;;4.87;3.30;;;-0.80;99.90;;;;;;4916669;29;20445;-92
2021/03/18 15:09:10;;;;;;;3.53;2.90;;;0.00;99.90;;;;;;4916813;29;20436;-93
2021/03/18 15:11:36;;;;;;;3.85;2.70;;;0.90;99.90;;;;;;4917092;29;20821;-93
2021/03/18 15:14:04;;;;;;;4.10;3.13;;;1.70;99.90;;;;;;4917102;29;20925;-91
2021/03/18 15:16:30;;;;;;;3.92;2.75;;;2.20;99.90;;;;;;4917671;29;20455;-91
2021/03/18 15:18:57;;;;;;;3.90;2.50;;;2.70;98.30;;;;;;4917138;29;20439;-92
2021/03/18 15:21:24;;;;;;;5.07;2.70;;;3.00;93.30;;;;;;4918560;29;20448;-94
2021/03/18 15:23:51;;;;;;;3.45;2.75;;;3.10;91.90;;;;;;4918353;29;20493;-93
2021/03/18 15:26:18;;;;;;;3.97;2.80;;;3.20;92.10;;;;;;4918167;29;20532;-92
2021/03/18 15:28:45;;;;;;;3.88;2.80;;;3.10;90.60;;;;;;4921389;29;20440;-93
2021/03/18 15:31:12;;;;;;;3.72;2.90;;;3.40;88.60;;;;;;4923733;29;20429;-95
2021/03/18 15:33:39;;;;;;;3.40;2.83;;;3.60;91.40;;;;;;4917031;29;20489;-92
2021/03/18 15:36:06;;;;;;;4.05;3.15;;;3.80;88.20;;;;;;4916585;29;20508;-92
2021/03/18 15:38:33;;;;;;;4.40;3.10;;;4.10;82.00;;;;;;4919302;29;20794;-92
2021/03/18 15:41:00;;;;;;;3.85;2.97;;;4.10;87.40;;;;;;4921962;29;20436;-95
2021/03/18 15:43:28;;;;;;;4.43;3.00;;;3.90;78.40;;;;;;4928221;29;20443;-96
2021/03/18 15:46:00;;;;;;;4.40;3.07;;;4.10;81.80;;;;;;4923099;29;20925;-95
2021/03/18 15:48:27;;;;;;;4.63;3.20;;;4.00;76.30;;;;;;4920147;29;20441;-95
2021/03/18 15:50:54;;;;;;;3.92;3.30;;;4.10;79.50;;;;;;4920045;29;20429;-93
2021/03/18 15:53:21;;;;;;;5.50;3.30;;;3.90;73.50;;;;;;4920611;29;20496;-95
2021/03/18 15:55:49;;;;;;;4.43;3.15;;;3.70;76.60;;;;;;4920447;29;20788;-92
2021/03/18 15:58:19;;;;;;;4.10;3.40;;;3.50;84.40;;;;;;4935904;29;20435;-95
2021/03/18 16:00:48;;;;;;;3.85;3.00;;;3.30;83.90;;;;;;4919590;29;20781;-95
2021/03/18 16:03:17;;;;;;;5.22;3.30;;;3.00;86.60;;;;;;4919560;29;20968;-96
2021/03/18 16:05:45;;;;;;;5.93;3.30;;;2.60;90.10;;;;;;4919917;29;20429;-95
2021/03/18 16:08:11;;;;;;;4.63;3.25;;;2.30;91.10;;;;;;4919937;29;20433;-91
2021/03/18 16:10:39;;;;;;;4.63;3.37;;;1.80;91.40;;;;;;4919658;29;20436;-95
2021/03/18 16:13:06;;;;;;;7.00;3.70;;;1.40;94.80;;;;;;4919556;29;20440;-93
2021/03/18 16:15:34;;;;;;;6.00;3.57;;;1.20;95.40;;;;;;4919315;29;20434;-94
2021/03/18 16:18:06;;;;;;;5.00;3.42;;;1.20;96.70;;;;;;4919497;29;20936;-91
2021/03/18 16:20:34;;;;;;;5.30;3.80;;;1.10;96.40;;;;;;4920251;29;20489;-93
2021/03/18 16:23:03;;;;;;;6.18;3.67;;;1.00;97.40;;;;;;4919252;29;20453;-95
2021/03/18 16:25:31;;;;;;;5.35;3.65;;;0.90;96.60;;;;;;4922769;29;20429;-93
2021/03/18 16:27:57;;;;;;;5.15;3.80;;;0.80;97.40;;;;;;4920946;29;20504;-95
2021/03/18 16:30:26;;;;;;;5.82;3.75;;;0.80;98.40;;;;;;4920080;29;20492;-95
2021/03/18 16:33:04;;;;;;;5.60;3.75;;;0.70;98.00;;;;;;4919587;29;20461;-92
2021/03/18 16:35:33;;;;;;;10.35;5.20;;;0.50;97.80;;;;;;4920284;29;20496;-93
2021/03/18 16:38:00;;;;;;;7.22;4.65;;;0.10;99.90;;;;;;4919722;29;20433;-94
2021/03/18 16:40:27;;;;;;;9.35;5.32;;;-0.10;99.90;;;;;;4919600;29;20429;-94
2021/03/18 16:42:54;;;;;;;7.30;5.18;;;-0.30;99.90;;;;;;4920134;29;20445;-93
2021/03/18 16:45:21;;;;;;;7.10;4.93;;;-0.40;99.90;;;;;;4919972;29;20516;-92
2021/03/18 16:47:49;;;;;;;7.95;5.78;;;-0.60;99.90;;;;;;4919974;29;20437;-94
2021/03/18 16:50:16;;;;;;;8.82;5.97;;;-0.80;99.90;;;;;;4919339;29;20437;-95
2021/03/18 16:52:43;;;;;;;10.20;6.67;;;-0.90;99.90;;;;;;4918541;29;21016;-92
2021/03/18 16:55:11;;;;;;;10.75;7.38;;;-1.00;99.90;;;;;;4919226;29;20502;-95
2021/03/18 16:57:42;;;;;;;10.70;6.63;;;-1.10;99.90;;;;;;4903904;29;20433;-92
2021/03/18 17:00:15;;;;;;;9.95;6.97;;;-1.20;99.90;;;;;;4919307;29;20460;-94
2021/03/18 17:02:44;;;;;;;10.27;7.45;;;-1.20;99.90;;;;;;4919520;29;20429;-93
2021/03/18 17:05:12;;;;;;;11.47;7.30;;;-1.10;99.90;;;;;;4936584;29;20430;-92
2021/03/18 17:07:39;;;;;;;10.13;7.40;;;-1.10;99.90;;;;;;4920372;29;20522;-93
2021/03/18 17:10:09;;;;;;;12.70;7.63;;;-1.10;99.90;;;;;;4946221;29;20427;-92
2021/03/18 17:12:36;;;;;;;12.30;7.47;;;-1.20;99.90;;;;;;4921069;29;20494;-94
2021/03/18 17:15:09;;;;;;;11.40;8.23;;;-1.20;99.90;;;;;;4952008;29;20427;-94
2021/03/18 17:17:37;;;;;;;16.25;9.60;;;-1.20;99.90;;;;;;4920988;29;20520;-93
2021/03/18 17:20:08;;;;;;;28.88;10.50;;;-1.20;99.90;;;;;;4921559;29;20483;-94
2021/03/18 17:22:40;;;;;;;193.57;18.20;;;-1.20;99.90;;;;;;4920810;29;20618;-94
2021/03/18 17:25:16;;;;;;;236.60;19.35;;;-1.10;99.90;;;;;;4921619;29;20424;-93
2021/03/18 17:27:44;;;;;;;584.97;32.53;;;-1.20;99.90;;;;;;4921290;29;20712;-93
2021/03/18 17:30:15;;;;;;;108.77;14.47;;;-1.20;99.90;;;;;;4921006;29;20428;-93
2021/03/18 17:32:43;;;;;;;1149.75;52.78;;;-1.10;99.90;;;;;;4923625;29;20490;-95
2021/03/18 17:35:13;;;;;;;1630.05;74.55;;;-1.10;99.90;;;;;;4939650;29;20868;-96
2021/03/18 17:40:54;;;;;;;1316.82;56.78;;;-1.20;99.90;;;;;;5008656;23;20424;-95
2021/03/18 17:46:36;;;;;;;287.88;20.50;;;-1.20;99.90;;;;;;5567792;22;20449;-96